Time;durP1;ratioP1;P1;durP2;ratioP2;P2;SDS_P1;SDS_P2;PMS_P1;PMS_P2;Temp;Humidity;BMP_temperature;BMP_pressure;BME280_temperature;BME280_humidity;BME280_pressure;Samples;Min_cycle;Max_cycle;Signal;HPM_P1;HPM_P2
2022/06/23 00:01:27;;;;;;;3.53;1.83;;;22.70;48.80;;;;;;5073829;28;20456;-73
2022/06/23 00:03:56;;;;;;;4.20;2.10;;;22.60;48.80;;;;;;5074154;28;20502;-73
2022/06/23 00:06:34;;;;;;;1.83;1.73;;;22.60;49.10;;;;;;5073485;28;20449;-73
2022/06/23 00:09:01;;;;;;;2.47;2.00;;;22.40;49.40;;;;;;5073692;28;20432;-74
2022/06/23 00:11:29;;;;;;;2.80;1.80;;;22.40;49.60;;;;;;5073378;28;20937;-74
2022/06/23 00:14:07;;;;;;;1.90;1.70;;;22.40;49.60;;;;;;5073195;28;20989;-73
2022/06/23 00:16:34;;;;;;;1.70;1.60;;;22.40;49.80;;;;;;5073702;28;20464;-73
2022/06/23 00:19:02;;;;;;;2.33;1.97;;;22.30;49.80;;;;;;5073228;28;20800;-73
2022/06/23 00:21:33;;;;;;;2.70;1.90;;;22.30;49.90;;;;;;5073562;28;20539;-73
2022/06/23 00:24:04;;;;;;;2.00;1.70;;;22.30;50.00;;;;;;5073052;28;20969;-72
2022/06/23 00:26:34;;;;;;;2.83;1.80;;;22.30;50.00;;;;;;5073561;28;20468;-73
2022/06/23 00:29:03;;;;;;;2.20;2.00;;;22.30;50.10;;;;;;5074370;28;20445;-73
2022/06/23 00:31:32;;;;;;;2.63;2.10;;;22.20;50.10;;;;;;5073647;28;20447;-73
2022/06/23 00:34:03;;;;;;;3.30;1.80;;;22.20;50.40;;;;;;5073427;28;20472;-72
2022/06/23 00:36:37;;;;;;;10.70;2.20;;;22.10;50.70;;;;;;5073250;28;20469;-73
2022/06/23 00:39:06;;;;;;;1.63;1.53;;;22.00;50.70;;;;;;5073256;28;20436;-73
2022/06/23 00:41:36;;;;;;;2.03;1.90;;;22.00;50.70;;;;;;5073725;28;20449;-72
2022/06/23 00:44:07;;;;;;;1.83;1.73;;;22.00;50.80;;;;;;5072962;28;20464;-74
2022/06/23 00:46:42;;;;;;;2.37;2.17;;;22.00;50.90;;;;;;5074758;28;20432;-73
2022/06/23 00:49:17;;;;;;;4.10;2.30;;;22.00;51.10;;;;;;5073115;28;20951;-73
2022/06/23 00:51:49;;;;;;;2.63;2.00;;;22.00;51.10;;;;;;5074662;28;20428;-72
2022/06/23 00:54:22;;;;;;;4.17;1.90;;;21.90;51.30;;;;;;5077444;28;20472;-72
2022/06/23 00:56:54;;;;;;;2.27;2.13;;;21.80;51.60;;;;;;5077466;28;20438;-73
2022/06/23 00:59:30;;;;;;;2.33;1.80;;;21.70;51.70;;;;;;5077409;28;20787;-74
2022/06/23 01:02:04;;;;;;;2.13;1.93;;;21.70;51.90;;;;;;5076900;28;20940;-72
2022/06/23 01:04:41;;;;;;;6.60;2.20;;;21.60;51.80;;;;;;5077266;28;20479;-73
2022/06/23 01:07:24;;;;;;;1.83;1.60;;;21.60;51.90;;;;;;5077324;28;20428;-74
2022/06/23 01:09:56;;;;;;;2.23;2.00;;;21.60;52.10;;;;;;5077194;28;20789;-73
2022/06/23 01:12:33;;;;;;;2.50;1.97;;;21.50;52.30;;;;;;5076761;28;20916;-72
2022/06/23 01:15:06;;;;;;;1.90;1.80;;;21.40;52.50;;;;;;5076947;28;20477;-72
2022/06/23 01:17:41;;;;;;;3.43;1.80;;;21.30;52.60;;;;;;5077193;28;20428;-73
2022/06/23 01:20:29;;;;;;;2.03;1.80;;;21.20;52.80;;;;;;5076701;28;20435;-73
2022/06/23 01:23:29;;;;;;;2.13;1.90;;;21.10;53.00;;;;;;5076394;28;20514;-72
2022/06/23 01:26:25;;;;;;;4.60;1.73;;;21.10;53.20;;;;;;5077034;28;20435;-73
2022/06/23 01:29:01;;;;;;;1.97;1.87;;;21.00;53.40;;;;;;5071750;28;20449;-73
2022/06/23 01:31:35;;;;;;;2.73;2.10;;;21.00;53.60;;;;;;5076667;28;20429;-72
2022/06/23 01:34:09;;;;;;;2.53;2.33;;;21.00;53.70;;;;;;5076650;28;20472;-72
2022/06/23 01:36:41;;;;;;;2.17;1.97;;;20.90;53.60;;;;;;5076611;28;20469;-73
2022/06/23 01:39:15;;;;;;;2.13;1.80;;;20.90;53.60;;;;;;5076596;28;20791;-72
2022/06/23 01:41:48;;;;;;;2.73;2.53;;;20.90;53.50;;;;;;5076373;28;20431;-73
2022/06/23 01:44:26;;;;;;;2.33;2.23;;;21.00;53.50;;;;;;5076459;28;20475;-72
2022/06/23 01:46:56;;;;;;;3.00;2.70;;;21.00;53.50;;;;;;5076687;28;20429;-73
2022/06/23 01:49:27;;;;;;;2.37;2.17;;;21.00;53.70;;;;;;5077374;28;20537;-73
2022/06/23 01:51:56;;;;;;;2.40;2.20;;;20.90;53.60;;;;;;5076939;28;20897;-72
2022/06/23 01:54:26;;;;;;;3.20;2.30;;;20.90;53.50;;;;;;5076568;28;20500;-72
2022/06/23 01:57:03;;;;;;;2.40;2.20;;;20.90;53.50;;;;;;5077139;28;20464;-73
2022/06/23 01:59:47;;;;;;;2.50;2.03;;;20.90;53.70;;;;;;5078307;28;20432;-73
2022/06/23 02:02:24;;;;;;;2.90;2.13;;;20.80;54.00;;;;;;5078971;28;20967;-72
2022/06/23 02:04:58;;;;;;;3.33;2.27;;;20.80;54.10;;;;;;5078857;28;20409;-73
2022/06/23 02:07:34;;;;;;;2.33;1.97;;;20.80;54.10;;;;;;5076116;28;20434;-73
2022/06/23 02:10:10;;;;;;;2.07;1.97;;;20.80;54.10;;;;;;5076357;28;20425;-73
2022/06/23 02:12:46;;;;;;;3.13;1.97;;;20.80;54.30;;;;;;5075763;28;21016;-72
2022/06/23 02:15:18;;;;;;;2.97;2.00;;;20.80;54.50;;;;;;5076123;28;20468;-73
2022/06/23 02:17:49;;;;;;;4.20;2.10;;;20.80;54.70;;;;;;5076066;28;20436;-73
2022/06/23 02:20:40;;;;;;;2.93;1.93;;;20.70;54.90;;;;;;5076056;28;20435;-73
2022/06/23 02:23:17;;;;;;;1.80;1.70;;;20.60;54.90;;;;;;5075464;28;20877;-73
2022/06/23 02:25:52;;;;;;;2.27;2.17;;;20.60;55.00;;;;;;5076076;28;20440;-73
2022/06/23 02:28:27;;;;;;;2.40;1.90;;;20.50;55.10;;;;;;5075767;28;20778;-73
2022/06/23 02:31:03;;;;;;;1.83;1.73;;;20.50;55.20;;;;;;5075639;28;20429;-72
2022/06/23 02:33:35;;;;;;;2.70;2.40;;;20.50;55.20;;;;;;5075578;28;20466;-72
2022/06/23 02:36:13;;;;;;;3.60;2.33;;;20.50;55.20;;;;;;5075739;28;20473;-72
2022/06/23 02:38:45;;;;;;;3.10;2.10;;;20.50;55.40;;;;;;5075674;28;20494;-73
2022/06/23 02:41:18;;;;;;;2.90;2.07;;;20.40;55.50;;;;;;5075302;28;20462;-72
2022/06/23 02:43:49;;;;;;;2.10;1.90;;;20.40;55.80;;;;;;5075432;28;20518;-72
2022/06/23 02:46:45;;;;;;;3.73;2.27;;;20.30;55.80;;;;;;5075763;28;20428;-72
2022/06/23 02:49:32;;;;;;;2.43;2.10;;;20.30;56.00;;;;;;5069458;28;20824;-73
2022/06/23 02:52:24;;;;;;;3.00;2.40;;;20.30;56.10;;;;;;5076191;28;20441;-73
2022/06/23 02:55:11;;;;;;;2.80;2.30;;;20.30;56.20;;;;;;5074890;28;20456;-72
2022/06/23 02:57:43;;;;;;;6.60;2.50;;;20.30;56.20;;;;;;5074829;28;20788;-72
2022/06/23 03:00:19;;;;;;;4.30;2.47;;;20.30;56.20;;;;;;5075248;28;20455;-73
2022/06/23 03:02:57;;;;;;;3.23;2.27;;;20.30;56.30;;;;;;5075112;28;20456;-72
2022/06/23 03:05:32;;;;;;;4.20;2.40;;;20.30;56.40;;;;;;5075078;28;20429;-72
2022/06/23 03:08:03;;;;;;;4.90;2.10;;;20.30;56.60;;;;;;5075760;28;20436;-73
2022/06/23 03:10:41;;;;;;;2.63;2.10;;;20.30;56.80;;;;;;5075241;28;20447;-72
2022/06/23 03:13:12;;;;;;;8.10;2.50;;;20.30;57.00;;;;;;5074875;28;20471;-72
2022/06/23 03:15:49;;;;;;;2.63;2.00;;;20.30;57.00;;;;;;5074217;28;20472;-72
2022/06/23 03:18:22;;;;;;;3.43;2.33;;;20.30;57.10;;;;;;5075475;28;20774;-73
2022/06/23 03:20:53;;;;;;;2.70;2.50;;;20.30;57.40;;;;;;5074849;28;20461;-73
2022/06/23 03:23:28;;;;;;;7.93;2.37;;;20.30;57.50;;;;;;5075036;28;20469;-72
2022/06/23 03:26:00;;;;;;;3.27;2.70;;;20.30;57.60;;;;;;5074856;28;20495;-73
2022/06/23 03:28:33;;;;;;;2.63;2.10;;;20.30;57.80;;;;;;5074830;28;20439;-73
2022/06/23 03:31:03;;;;;;;4.60;3.60;;;20.30;57.80;;;;;;5074736;28;20421;-72
2022/06/23 03:33:41;;;;;;;3.07;2.53;;;20.30;58.10;;;;;;5074406;28;20457;-73
2022/06/23 03:36:18;;;;;;;5.83;3.60;;;20.30;58.30;;;;;;5074209;28;20828;-72
2022/06/23 03:41:39;;;;;;;3.80;2.77;;;20.30;58.90;;;;;;5074599;28;20416;-71
2022/06/23 03:44:16;;;;;;;2.97;2.40;;;20.20;59.00;;;;;;5074546;28;20472;-72
2022/06/23 03:46:50;;;;;;;6.70;3.07;;;20.10;59.20;;;;;;5074382;28;20831;-71
2022/06/23 03:49:31;;;;;;;5.20;2.80;;;20.00;59.40;;;;;;5073878;28;20429;-71
2022/06/23 03:52:02;;;;;;;3.70;2.50;;;20.00;59.90;;;;;;5074020;28;20425;-71
2022/06/23 03:54:33;;;;;;;5.53;2.30;;;20.00;60.20;;;;;;5073829;28;20481;-71
2022/06/23 03:57:05;;;;;;;2.70;2.50;;;20.10;60.60;;;;;;5073825;28;20481;-71
2022/06/23 03:59:42;;;;;;;5.87;2.80;;;20.20;60.80;;;;;;5073937;28;20433;-71
2022/06/23 04:02:15;;;;;;;2.97;2.77;;;20.20;59.90;;;;;;5073583;28;20936;-71
2022/06/23 04:04:50;;;;;;;3.63;2.77;;;20.40;60.50;;;;;;5073801;28;20471;-71
2022/06/23 04:07:47;;;;;;;2.43;2.23;;;20.40;59.70;;;;;;5074024;28;20436;-71
2022/06/23 04:10:19;;;;;;;4.73;2.50;;;20.60;58.40;;;;;;5060933;28;20988;-71
2022/06/23 04:12:53;;;;;;;4.20;2.47;;;20.70;57.80;;;;;;5074114;28;20457;-71
2022/06/23 04:15:28;;;;;;;3.73;2.33;;;20.80;57.30;;;;;;5073970;28;20463;-72
2022/06/23 04:18:01;;;;;;;3.00;2.70;;;20.80;57.00;;;;;;5073841;28;20421;-72
2022/06/23 04:20:38;;;;;;;3.90;2.50;;;20.90;56.90;;;;;;5073597;28;20516;-72
2022/06/23 04:23:09;;;;;;;2.53;2.33;;;21.00;56.60;;;;;;5074011;28;20467;-72
2022/06/23 04:25:45;;;;;;;5.70;2.50;;;21.20;56.50;;;;;;5073911;28;20440;-72
2022/06/23 04:28:20;;;;;;;5.03;2.40;;;21.20;56.10;;;;;;5073714;28;20433;-72
2022/06/23 04:30:48;;;;;;;2.13;1.93;;;21.30;56.50;;;;;;5073831;28;20428;-72
2022/06/23 04:33:19;;;;;;;3.10;2.23;;;21.30;56.30;;;;;;5074867;28;20465;-72
2022/06/23 04:35:51;;;;;;;2.40;2.20;;;21.40;56.40;;;;;;5075542;28;20440;-72
2022/06/23 04:38:25;;;;;;;3.23;2.30;;;21.50;56.60;;;;;;5076441;28;20448;-72
2022/06/23 04:40:58;;;;;;;5.67;2.87;;;21.50;56.40;;;;;;5078698;28;20428;-71
2022/06/23 04:43:34;;;;;;;3.50;2.60;;;21.60;55.90;;;;;;5073422;28;20465;-71
2022/06/23 04:46:05;;;;;;;2.60;2.40;;;21.60;55.50;;;;;;5073243;28;20429;-71
2022/06/23 04:48:42;;;;;;;2.40;2.20;;;21.60;55.50;;;;;;5073247;28;20814;-70
2022/06/23 04:51:20;;;;;;;3.40;2.10;;;21.70;55.90;;;;;;5073304;28;20432;-71
2022/06/23 04:53:55;;;;;;;2.80;2.40;;;21.80;56.10;;;;;;5072622;28;20576;-71
2022/06/23 04:56:40;;;;;;;2.90;2.57;;;21.80;55.20;;;;;;5072811;28;20999;-71
2022/06/23 04:59:22;;;;;;;5.07;2.40;;;21.80;54.80;;;;;;5073324;28;20433;-71
2022/06/23 05:01:51;;;;;;;2.93;2.40;;;21.80;54.70;;;;;;5072989;28;20829;-70
2022/06/23 05:04:21;;;;;;;2.80;1.90;;;21.80;54.90;;;;;;5073221;28;20464;-69
2022/06/23 05:06:52;;;;;;;2.93;2.27;;;21.90;55.40;;;;;;5072996;28;20500;-69
2022/06/23 05:09:24;;;;;;;3.60;2.03;;;22.00;55.50;;;;;;5072790;28;20910;-68
2022/06/23 05:11:53;;;;;;;2.67;2.30;;;22.00;55.70;;;;;;5073099;28;20425;-69
2022/06/23 05:14:28;;;;;;;5.03;2.23;;;22.00;56.00;;;;;;5072763;28;20522;-69
2022/06/23 05:17:04;;;;;;;4.80;2.77;;;22.10;56.20;;;;;;5072585;28;20989;-70
2022/06/23 05:19:35;;;;;;;3.63;2.20;;;22.20;56.60;;;;;;5072743;28;20798;-70
2022/06/23 05:22:19;;;;;;;3.93;2.80;;;22.20;56.00;;;;;;5072786;28;20428;-71
2022/06/23 05:24:48;;;;;;;4.13;2.87;;;22.30;55.60;;;;;;5072303;28;20471;-70
2022/06/23 05:27:21;;;;;;;4.20;2.30;;;22.40;55.90;;;;;;5073060;28;20448;-70
2022/06/23 05:29:53;;;;;;;5.30;3.67;;;22.40;56.10;;;;;;5072574;28;20440;-69
2022/06/23 05:32:23;;;;;;;5.87;3.87;;;22.50;56.20;;;;;;5072696;28;20429;-69
2022/06/23 05:34:58;;;;;;;5.80;2.60;;;22.50;55.70;;;;;;5072802;28;20441;-69
2022/06/23 05:37:30;;;;;;;10.83;3.53;;;22.50;55.60;;;;;;5073425;28;20463;-69
2022/06/23 05:40:11;;;;;;;3.00;2.70;;;22.60;55.80;;;;;;5076987;28;20424;-69
2022/06/23 05:42:40;;;;;;;4.97;3.23;;;22.70;56.40;;;;;;5076768;28;20472;-69
2022/06/23 05:45:14;;;;;;;8.93;3.30;;;22.70;56.50;;;;;;5076995;28;20449;-69
2022/06/23 05:47:42;;;;;;;3.50;3.00;;;22.80;56.50;;;;;;5076907;28;20431;-69
2022/06/23 05:50:15;;;;;;;5.60;3.60;;;22.80;56.60;;;;;;5076449;28;20445;-70
2022/06/23 05:52:48;;;;;;;6.27;3.97;;;22.90;56.70;;;;;;5076378;28;20436;-70
2022/06/23 05:55:19;;;;;;;7.00;3.70;;;23.00;58.30;;;;;;5076218;28;20455;-69
2022/06/23 05:57:52;;;;;;;8.00;4.20;;;23.00;58.50;;;;;;5076520;28;20823;-69
2022/06/23 06:00:26;;;;;;;6.27;4.30;;;23.10;57.70;;;;;;5076984;28;20437;-69
2022/06/23 06:03:02;;;;;;;6.33;4.27;;;23.20;57.90;;;;;;5075964;28;20460;-70
2022/06/23 06:05:34;;;;;;;10.80;5.10;;;23.30;58.40;;;;;;5076162;28;20428;-69
2022/06/23 06:08:06;;;;;;;5.40;4.20;;;23.40;59.30;;;;;;5076282;28;20428;-69
2022/06/23 06:10:35;;;;;;;7.47;5.07;;;23.50;59.60;;;;;;5075933;28;20800;-70
2022/06/23 06:13:04;;;;;;;7.10;5.50;;;23.50;59.30;;;;;;5076283;28;20464;-70
2022/06/23 06:15:33;;;;;;;9.80;5.40;;;23.60;60.80;;;;;;5076034;28;20449;-70
2022/06/23 06:18:08;;;;;;;8.37;5.10;;;23.60;61.30;;;;;;5076880;28;20490;-69
2022/06/23 06:20:36;;;;;;;7.10;4.40;;;23.70;62.10;;;;;;5075825;28;20429;-69
2022/06/23 06:23:09;;;;;;;6.47;4.77;;;23.80;61.00;;;;;;5075864;28;20468;-70
2022/06/23 06:25:38;;;;;;;6.00;5.13;;;23.90;61.60;;;;;;5075615;28;20925;-70
2022/06/23 06:28:15;;;;;;;10.13;5.47;;;24.00;61.30;;;;;;5075749;28;20915;-70
2022/06/23 06:30:47;;;;;;;7.00;4.50;;;24.00;61.50;;;;;;5075285;28;20800;-70
2022/06/23 06:33:31;;;;;;;6.17;4.67;;;24.10;60.70;;;;;;5075291;28;20961;-70
2022/06/23 06:35:57;;;;;;;10.60;5.13;;;24.30;60.10;;;;;;5075781;28;20433;-70
2022/06/23 06:38:28;;;;;;;9.93;5.43;;;24.40;60.20;;;;;;5075564;28;20480;-70
2022/06/23 06:40:58;;;;;;;6.40;5.57;;;24.50;60.80;;;;;;5075514;28;20432;-69
2022/06/23 06:43:30;;;;;;;8.60;5.10;;;24.60;61.30;;;;;;5075608;28;20586;-70
2022/06/23 06:45:58;;;;;;;9.97;5.40;;;24.60;61.60;;;;;;5075662;28;20532;-69
2022/06/23 06:48:28;;;;;;;7.30;5.40;;;24.70;61.70;;;;;;5075654;28;20490;-70
2022/06/23 06:51:00;;;;;;;7.70;5.07;;;24.70;60.70;;;;;;5075115;28;20437;-70
2022/06/23 06:53:33;;;;;;;6.30;4.70;;;24.90;60.90;;;;;;5075569;28;20480;-70
2022/06/23 06:56:06;;;;;;;5.38;4.88;;;24.90;60.60;;;;;;5075585;28;20509;-70
2022/06/23 06:58:39;;;;;;;11.07;5.17;;;25.00;60.40;;;;;;5075433;28;20206;-70
2022/06/23 07:01:10;;;;;;;6.43;5.13;;;25.20;59.60;;;;;;5075420;28;20799;-71
2022/06/23 07:03:40;;;;;;;4.50;4.10;;;25.40;59.10;;;;;;5075548;28;20464;-71
2022/06/23 07:06:13;;;;;;;11.40;5.00;;;25.60;58.80;;;;;;5075294;28;20441;-71
2022/06/23 07:08:46;;;;;;;9.43;4.80;;;25.80;58.40;;;;;;5075724;28;20425;-70
2022/06/23 07:11:18;;;;;;;7.23;4.70;;;26.00;57.60;;;;;;5075735;28;20894;-69
2022/06/23 07:13:51;;;;;;;11.03;6.13;;;26.30;57.40;;;;;;5077522;28;20465;-70
2022/06/23 07:16:23;;;;;;;7.20;4.90;;;26.40;56.90;;;;;;5080482;28;20433;-69
2022/06/23 07:18:58;;;;;;;4.87;4.47;;;26.50;57.00;;;;;;5078511;28;20791;-69
2022/06/23 07:21:29;;;;;;;5.53;4.90;;;26.70;56.30;;;;;;5074382;28;20790;-70
2022/06/23 07:24:05;;;;;;;7.33;4.40;;;26.90;55.50;;;;;;5074604;28;20457;-70
2022/06/23 07:26:39;;;;;;;5.17;4.03;;;27.20;55.10;;;;;;5074616;28;20433;-70
2022/06/23 07:29:16;;;;;;;7.13;4.83;;;27.50;54.40;;;;;;5074759;28;20433;-70
2022/06/23 07:31:50;;;;;;;6.90;4.30;;;27.80;53.90;;;;;;5074484;28;20437;-71
2022/06/23 07:34:18;;;;;;;7.67;4.67;;;28.00;53.40;;;;;;5074422;28;20461;-71
2022/06/23 07:36:50;;;;;;;6.53;4.30;;;28.30;52.80;;;;;;5074298;28;20469;-71
2022/06/23 07:39:22;;;;;;;9.80;4.23;;;28.50;51.70;;;;;;5074542;28;20433;-71
2022/06/23 07:41:54;;;;;;;6.83;4.13;;;28.70;51.40;;;;;;5074348;28;20456;-71
2022/06/23 07:44:25;;;;;;;7.40;4.63;;;29.00;50.80;;;;;;5074105;28;21023;-71
2022/06/23 07:46:52;;;;;;;8.97;4.63;;;29.10;49.60;;;;;;5074267;28;20438;-72
2022/06/23 07:49:19;;;;;;;12.80;5.30;;;29.20;49.30;;;;;;5074047;28;20449;-72
2022/06/23 07:51:46;;;;;;;9.00;4.70;;;29.40;49.50;;;;;;5074155;28;20445;-72
2022/06/23 07:54:19;;;;;;;7.70;4.70;;;29.50;48.80;;;;;;5073536;28;20496;-72
2022/06/23 07:56:49;;;;;;;7.30;4.00;;;29.50;47.90;;;;;;5074030;28;20436;-72
2022/06/23 07:59:19;;;;;;;9.33;4.40;;;29.70;47.90;;;;;;5074230;28;20455;-72
2022/06/23 08:01:50;;;;;;;7.27;4.20;;;29.90;48.30;;;;;;5073124;28;20449;-72
2022/06/23 08:04:24;;;;;;;8.53;4.43;;;30.00;47.30;;;;;;5073953;28;20471;-72
2022/06/23 08:06:52;;;;;;;8.63;3.93;;;30.10;47.10;;;;;;5073947;28;20439;-72
2022/06/23 08:09:28;;;;;;;14.30;4.80;;;30.30;46.90;;;;;;5073606;28;20447;-72
2022/06/23 08:14:48;;;;;;;8.00;4.37;;;30.50;46.20;;;;;;5073689;28;20439;-70
2022/06/23 08:17:16;;;;;;;8.13;4.37;;;30.70;46.40;;;;;;5073774;28;20830;-70
2022/06/23 08:19:49;;;;;;;9.83;4.50;;;30.90;45.90;;;;;;5073683;28;20453;-70
2022/06/23 08:22:20;;;;;;;8.50;4.57;;;31.10;45.60;;;;;;5073602;28;20923;-71
2022/06/23 08:24:51;;;;;;;9.60;5.13;;;31.10;44.50;;;;;;5073813;28;20500;-70
2022/06/23 08:27:21;;;;;;;8.77;5.23;;;31.10;44.40;;;;;;5073761;28;20433;-70
2022/06/23 08:29:50;;;;;;;8.10;5.40;;;31.20;45.00;;;;;;5073589;28;20478;-70
2022/06/23 08:32:19;;;;;;;8.20;4.73;;;31.20;44.50;;;;;;5073463;28;20770;-69
2022/06/23 08:34:52;;;;;;;13.50;4.80;;;31.30;44.40;;;;;;5073683;28;20556;-73
2022/06/23 08:37:22;;;;;;;9.40;5.43;;;31.50;44.10;;;;;;5073817;28;20465;-70
2022/06/23 08:39:56;;;;;;;7.20;5.33;;;31.60;44.00;;;;;;5073728;28;20483;-71
2022/06/23 08:42:29;;;;;;;9.80;5.40;;;31.60;42.90;;;;;;5073796;28;20439;-70
2022/06/23 08:45:06;;;;;;;7.33;5.20;;;31.50;43.30;;;;;;5073404;28;20462;-70
2022/06/23 08:47:44;;;;;;;7.70;5.00;;;31.40;43.00;;;;;;5073612;28;20429;-71
2022/06/23 08:50:19;;;;;;;8.40;4.73;;;31.30;42.90;;;;;;5073522;28;20469;-72
2022/06/23 08:52:51;;;;;;;6.83;4.60;;;31.20;41.50;;;;;;5073205;28;20472;-72
2022/06/23 08:55:25;;;;;;;7.07;4.73;;;31.10;41.20;;;;;;5073322;28;20460;-72
2022/06/23 08:57:58;;;;;;;6.87;4.60;;;31.10;41.20;;;;;;5073124;28;21002;-72
2022/06/23 09:00:40;;;;;;;6.40;4.90;;;31.10;41.00;;;;;;5073196;28;20444;-72
2022/06/23 09:03:12;;;;;;;5.83;5.10;;;31.20;41.10;;;;;;5073207;28;20487;-72
2022/06/23 09:05:46;;;;;;;5.20;4.50;;;31.40;40.50;;;;;;5073263;28;20563;-72
2022/06/23 09:08:21;;;;;;;6.87;5.77;;;31.30;40.50;;;;;;5073508;28;20421;-72
2022/06/23 09:10:58;;;;;;;6.40;4.70;;;31.30;40.60;;;;;;5073296;28;20535;-72
2022/06/23 09:13:43;;;;;;;5.27;4.87;;;31.30;40.90;;;;;;5075462;28;20541;-72
2022/06/23 09:16:30;;;;;;;8.57;5.20;;;31.40;41.70;;;;;;5076876;28;20486;-72
2022/06/23 09:19:14;;;;;;;4.90;4.50;;;31.50;40.60;;;;;;5076805;28;20988;-73
2022/06/23 09:21:54;;;;;;;6.07;4.47;;;31.60;40.40;;;;;;5077129;28;20436;-74
2022/06/23 09:24:47;;;;;;;8.20;4.73;;;31.60;39.90;;;;;;5076948;28;20471;-73
2022/06/23 09:27:26;;;;;;;4.80;4.00;;;31.70;39.50;;;;;;5077346;28;20421;-73
2022/06/23 09:29:58;;;;;;;5.83;5.23;;;31.80;38.50;;;;;;5077057;28;20475;-74
2022/06/23 09:32:47;;;;;;;9.33;4.03;;;32.00;37.80;;;;;;5076895;28;20445;-73
2022/06/23 09:35:45;;;;;;;6.30;4.40;;;32.00;37.60;;;;;;5064064;28;20807;-73
2022/06/23 09:38:36;;;;;;;4.73;4.23;;;32.00;37.50;;;;;;5076347;28;20460;-73
2022/06/23 09:41:10;;;;;;;5.63;4.47;;;32.20;37.60;;;;;;5077555;28;20428;-73
2022/06/23 09:44:01;;;;;;;4.90;4.40;;;32.30;37.00;;;;;;5077334;28;20466;-73
2022/06/23 09:47:04;;;;;;;6.60;4.60;;;32.60;37.40;;;;;;5077175;28;20446;-74
2022/06/23 09:49:43;;;;;;;5.00;4.30;;;33.00;36.10;;;;;;5074184;28;20451;-72
2022/06/23 09:52:29;;;;;;;5.50;4.33;;;32.90;36.40;;;;;;5077758;28;20420;-72
2022/06/23 09:55:22;;;;;;;8.43;4.40;;;33.00;34.90;;;;;;5079968;28;20448;-73
2022/06/23 09:58:13;;;;;;;11.63;4.27;;;33.10;35.20;;;;;;5080050;28;20460;-73
2022/06/23 10:00:56;;;;;;;8.70;4.40;;;33.30;34.60;;;;;;5077188;28;20834;-74
2022/06/23 10:03:41;;;;;;;5.47;3.87;;;33.40;34.10;;;;;;5076214;28;20478;-72
2022/06/23 10:06:27;;;;;;;4.27;3.87;;;33.50;34.60;;;;;;5075839;28;20428;-73
2022/06/23 10:09:03;;;;;;;6.07;3.67;;;33.70;34.40;;;;;;5076154;28;20427;-73
2022/06/23 10:11:55;;;;;;;7.20;3.40;;;34.00;34.00;;;;;;5076156;28;20428;-73
2022/06/23 10:14:43;;;;;;;6.03;3.77;;;34.40;34.00;;;;;;5073235;28;20854;-73
2022/06/23 10:17:22;;;;;;;4.73;3.93;;;34.90;33.40;;;;;;5075943;28;20436;-73
2022/06/23 10:20:27;;;;;;;6.37;3.87;;;35.30;32.20;;;;;;5076170;28;20790;-74
2022/06/23 10:23:17;;;;;;;5.10;3.50;;;35.60;31.70;;;;;;5072920;28;20476;-73
2022/06/23 10:25:57;;;;;;;4.20;3.80;;;35.80;31.90;;;;;;5074962;28;20440;-73
2022/06/23 10:28:42;;;;;;;7.20;4.20;;;36.10;31.90;;;;;;5076687;28;20805;-73
2022/06/23 10:31:21;;;;;;;8.30;4.07;;;36.50;31.30;;;;;;5075808;28;20440;-74
2022/06/23 10:34:05;;;;;;;6.83;3.43;;;36.80;30.20;;;;;;5075483;28;20819;-73
2022/06/23 10:36:57;;;;;;;6.60;4.03;;;37.30;30.00;;;;;;5075381;28;20635;-74
2022/06/23 10:39:53;;;;;;;13.10;3.67;;;37.80;29.40;;;;;;5072253;28;20224;-73
2022/06/23 10:42:40;;;;;;;7.35;3.90;;;38.40;28.60;;;;;;5075685;28;20201;-73
2022/06/23 10:45:25;;;;;;;6.88;3.92;;;39.00;28.00;;;;;;5075532;28;20205;-73
2022/06/23 10:48:29;;;;;;;8.82;3.83;;;39.50;27.20;;;;;;5075689;28;20213;-74
2022/06/23 10:51:11;;;;;;;7.18;4.07;;;40.20;26.90;;;;;;5056609;28;20201;-72
2022/06/23 10:54:12;;;;;;;8.80;4.05;;;41.10;25.60;;;;;;5075122;28;20608;-72
2022/06/23 10:56:57;;;;;;;5.97;3.40;;;42.00;25.00;;;;;;5075537;28;20638;-73
2022/06/23 10:59:36;;;;;;;9.63;3.72;;;42.70;23.20;;;;;;5075065;28;20284;-73
2022/06/23 11:02:39;;;;;;;7.80;3.42;;;43.10;23.60;;;;;;5075377;28;20558;-73
2022/06/23 11:05:41;;;;;;;5.82;3.10;;;43.50;22.40;;;;;;5075077;28;20229;-73
2022/06/23 11:08:19;;;;;;;5.45;3.60;;;44.20;23.10;;;;;;5070429;28;20197;-71
2022/06/23 11:11:09;;;;;;;7.88;3.50;;;45.00;23.00;;;;;;5075021;28;20192;-74
2022/06/23 11:13:47;;;;;;;4.78;3.45;;;45.60;20.60;;;;;;5074927;28;20226;-74
2022/06/23 11:16:20;;;;;;;5.40;3.15;;;46.00;19.90;;;;;;5075219;28;20200;-74
2022/06/23 11:19:04;;;;;;;5.65;3.50;;;46.20;20.00;;;;;;5077584;28;20214;-73
2022/06/23 11:21:52;;;;;;;4.43;3.17;;;46.70;19.70;;;;;;5075559;28;20189;-75
2022/06/23 11:24:31;;;;;;;5.60;3.33;;;46.90;18.70;;;;;;5074953;28;20278;-74
2022/06/23 11:27:06;;;;;;;5.25;2.83;;;47.20;19.10;;;;;;5074633;28;20627;-73
2022/06/23 11:29:58;;;;;;;5.63;2.67;;;47.50;19.20;;;;;;5074652;28;20692;-72
2022/06/23 11:32:38;;;;;;;7.53;3.55;;;47.80;19.60;;;;;;5074570;28;20194;-73
2022/06/23 11:35:22;;;;;;;7.57;3.10;;;48.00;17.30;;;;;;5074599;28;20209;-73
2022/06/23 11:38:10;;;;;;;6.38;2.90;;;47.60;17.80;;;;;;5074645;28;20214;-72
2022/06/23 11:41:00;;;;;;;5.38;3.35;;;47.40;18.00;;;;;;5074803;28;20198;-72
2022/06/23 11:43:35;;;;;;;8.20;2.80;;;47.10;17.90;;;;;;5074425;28;20233;-73
2022/06/23 11:46:15;;;;;;;3.58;3.03;;;46.10;19.00;;;;;;5074518;28;20263;-72
2022/06/23 11:48:54;;;;;;;5.13;3.40;;;45.60;20.30;;;;;;5074402;28;20189;-72
2022/06/23 11:51:38;;;;;;;7.82;4.28;;;45.70;19.60;;;;;;5074384;28;20198;-72
2022/06/23 11:54:29;;;;;;;6.55;3.13;;;46.40;19.70;;;;;;5074079;28;20606;-72
2022/06/23 11:57:19;;;;;;;4.55;2.90;;;46.90;18.60;;;;;;5074361;28;20196;-71
2022/06/23 11:59:57;;;;;;;5.05;3.22;;;47.60;18.20;;;;;;5074986;28;20210;-72
2022/06/23 12:02:23;;;;;;;5.78;3.47;;;48.30;18.10;;;;;;5074273;28;20194;-72
2022/06/23 12:05:14;;;;;;;5.82;3.10;;;48.60;17.30;;;;;;5074134;28;20240;-72
2022/06/23 12:07:58;;;;;;;6.28;3.17;;;49.10;16.80;;;;;;5074362;28;20186;-72
2022/06/23 12:10:27;;;;;;;6.47;2.80;;;49.30;16.50;;;;;;5074351;28;20213;-72
2022/06/23 12:13:01;;;;;;;5.95;3.10;;;49.30;16.40;;;;;;5073988;28;20240;-73
2022/06/23 12:15:30;;;;;;;5.60;3.67;;;49.40;15.80;;;;;;5074037;28;20213;-73
2022/06/23 12:18:01;;;;;;;4.85;3.83;;;49.30;16.00;;;;;;5073817;28;20546;-72
2022/06/23 12:20:40;;;;;;;5.15;3.22;;;49.50;17.00;;;;;;5074227;28;20217;-72
2022/06/23 12:23:16;;;;;;;5.78;3.00;;;49.70;15.50;;;;;;5074124;28;20221;-72
2022/06/23 12:25:51;;;;;;;6.68;3.47;;;49.90;16.40;;;;;;5074322;28;20197;-72
2022/06/23 12:28:27;;;;;;;6.50;3.25;;;50.30;16.60;;;;;;5074241;28;20186;-73
2022/06/23 12:30:58;;;;;;;5.25;3.38;;;50.40;15.30;;;;;;5074326;28;20194;-73
2022/06/23 12:33:32;;;;;;;6.47;3.70;;;50.40;16.20;;;;;;5075105;28;20225;-73
2022/06/23 12:36:07;;;;;;;11.05;3.97;;;50.70;16.40;;;;;;5076483;28;20654;-72
2022/06/23 12:38:40;;;;;;;4.13;3.28;;;51.20;15.70;;;;;;5077234;28;20213;-72
2022/06/23 12:41:13;;;;;;;4.10;2.85;;;51.70;15.90;;;;;;5081243;28;20197;-72
2022/06/23 12:43:47;;;;;;;17.10;3.28;;;52.20;15.30;;;;;;5073919;28;20319;-73
2022/06/23 12:46:21;;;;;;;5.10;3.03;;;52.40;14.30;;;;;;5073642;28;20182;-73
2022/06/23 12:49:06;;;;;;;5.50;3.08;;;52.80;14.80;;;;;;5073424;28;20188;-72
2022/06/23 12:51:45;;;;;;;6.88;3.38;;;52.20;14.90;;;;;;5073780;28;20190;-72
2022/06/23 12:54:31;;;;;;;8.00;3.75;;;51.30;15.60;;;;;;5073825;28;20229;-73
2022/06/23 12:57:21;;;;;;;5.55;4.63;;;50.80;15.80;;;;;;5073800;28;20186;-72
2022/06/23 12:59:54;;;;;;;6.30;3.88;;;50.70;16.60;;;;;;5074001;28;20251;-72
2022/06/23 13:02:30;;;;;;;7.47;3.95;;;50.90;16.00;;;;;;5073699;28;20197;-73
2022/06/23 13:05:02;;;;;;;4.30;3.55;;;51.50;15.40;;;;;;5074789;28;20197;-73
2022/06/23 13:07:35;;;;;;;5.32;3.45;;;52.00;15.10;;;;;;5073406;28;20197;-73
2022/06/23 13:10:09;;;;;;;5.55;3.10;;;52.00;14.80;;;;;;5073589;28;20195;-73
2022/06/23 13:12:41;;;;;;;4.45;3.17;;;52.00;15.00;;;;;;5073597;28;20244;-73
2022/06/23 13:15:12;;;;;;;6.80;3.58;;;52.20;14.90;;;;;;5072992;28;20551;-73
2022/06/23 13:17:48;;;;;;;5.13;3.28;;;52.70;14.40;;;;;;5073626;28;20186;-73
2022/06/23 13:20:26;;;;;;;5.75;2.92;;;52.80;14.00;;;;;;5073824;28;20255;-74
2022/06/23 13:22:58;;;;;;;3.20;2.80;;;53.00;14.70;;;;;;5073712;28;20229;-74
2022/06/23 13:25:29;;;;;;;4.35;3.50;;;53.30;14.10;;;;;;5073379;28;20182;-74
2022/06/23 13:27:57;;;;;;;3.08;2.70;;;53.20;12.90;;;;;;5073510;28;20190;-74
2022/06/23 13:30:29;;;;;;;6.95;3.63;;;53.20;14.00;;;;;;5073112;28;20580;-74
2022/06/23 13:33:04;;;;;;;5.68;3.17;;;53.50;14.20;;;;;;5073309;28;20226;-74
2022/06/23 13:35:39;;;;;;;6.03;2.80;;;53.90;13.80;;;;;;5073245;28;20190;-75
2022/06/23 13:38:16;;;;;;;6.60;3.22;;;54.20;12.60;;;;;;5072885;28;20196;-74